createdAt,value
2022-10-26T00:01:48.764Z,3.27
2022-10-26T00:03:51.837Z,3.27
2022-10-26T00:05:53.585Z,3.53
2022-10-26T00:07:55.632Z,3.23
2022-10-26T00:09:57.378Z,5.07
2022-10-26T00:12:01.861Z,3.17
2022-10-26T00:14:03.686Z,4.37
2022-10-26T00:16:30.001Z,4.73
2022-10-26T00:18:31.867Z,3.53
2022-10-26T00:20:33.692Z,2.50
2022-10-26T00:22:35.852Z,3.87
2022-10-26T00:24:40.871Z,4.30
2022-10-26T00:26:45.549Z,7.50
2022-10-26T00:28:49.049Z,3.43
2022-10-26T00:30:52.890Z,3.00
2022-10-26T00:32:56.732Z,4.00
2022-10-26T00:35:10.320Z,4.33
2022-10-26T00:37:21.977Z,3.50
2022-10-26T00:39:24.594Z,2.40
2022-10-26T00:41:32.562Z,2.80
2022-10-26T00:43:37.499Z,2.60
2022-10-26T00:45:40.090Z,3.07
2022-10-26T00:47:47.276Z,3.70
2022-10-26T00:49:50.140Z,3.60
2022-10-26T00:51:53.661Z,3.47
2022-10-26T00:53:56.243Z,2.73
2022-10-26T00:55:58.494Z,3.93
2022-10-26T00:58:02.387Z,1.87
2022-10-26T01:00:06.999Z,5.20
2022-10-26T01:02:09.180Z,3.73
2022-10-26T01:04:12.719Z,4.10
2022-10-26T01:06:15.909Z,3.73
2022-10-26T01:08:19.033Z,3.13
2022-10-26T01:10:21.882Z,2.60
2022-10-26T01:12:23.773Z,3.70
2022-10-26T01:14:28.619Z,2.70
2022-10-26T01:16:40.821Z,3.03
2022-10-26T01:19:27.677Z,3.37
2022-10-26T01:21:45.993Z,3.27
2022-10-26T01:24:12.551Z,3.00
2022-10-26T01:26:47.252Z,3.10
2022-10-26T01:29:02.282Z,2.03
2022-10-26T01:31:12.094Z,3.83
2022-10-26T01:33:38.599Z,2.50
2022-10-26T01:36:08.754Z,2.40
2022-10-26T01:38:29.734Z,2.10
2022-10-26T01:40:41.023Z,2.20
2022-10-26T01:42:48.299Z,3.50
2022-10-26T01:44:58.441Z,1.57
2022-10-26T01:47:06.419Z,3.43
2022-10-26T01:49:12.379Z,2.50
2022-10-26T01:51:18.794Z,2.70
2022-10-26T01:53:21.740Z,2.80
2022-10-26T01:55:51.108Z,1.53
2022-10-26T01:57:56.840Z,4.83
2022-10-26T02:00:06.135Z,2.40
2022-10-26T02:02:34.707Z,2.23
2022-10-26T02:05:13.973Z,1.63
2022-10-26T02:07:40.682Z,1.90
2022-10-26T02:10:01.194Z,2.20
2022-10-26T02:12:11.073Z,2.80
2022-10-26T02:14:26.872Z,3.10
2022-10-26T02:16:45.295Z,2.50
2022-10-26T02:19:01.391Z,3.40
2022-10-26T02:21:14.853Z,2.37
2022-10-26T02:23:17.878Z,4.37
2022-10-26T02:25:27.158Z,2.23
2022-10-26T02:27:34.770Z,2.23
2022-10-26T02:29:38.026Z,2.57
2022-10-26T02:31:41.502Z,3.07
2022-10-26T02:33:50.945Z,3.73
2022-10-26T02:35:54.681Z,3.00
2022-10-26T02:37:59.664Z,3.23
2022-10-26T02:40:07.088Z,2.93
2022-10-26T02:42:10.658Z,2.23
2022-10-26T02:44:18.878Z,3.00
2022-10-26T02:46:23.434Z,2.67
2022-10-26T02:48:25.325Z,2.83
2022-10-26T02:50:36.554Z,2.20
2022-10-26T02:52:51.257Z,4.53
2022-10-26T02:55:16.941Z,3.20
2022-10-26T02:57:42.456Z,2.77
2022-10-26T02:59:47.638Z,2.30
2022-10-26T03:01:52.021Z,2.90
2022-10-26T03:03:57.921Z,2.37
2022-10-26T03:05:59.921Z,4.20
2022-10-26T03:08:01.772Z,3.27
2022-10-26T03:10:03.787Z,2.40
2022-10-26T03:12:05.746Z,3.23
2022-10-26T03:14:07.543Z,1.90
2022-10-26T03:16:09.616Z,2.90
2022-10-26T03:18:11.403Z,2.67
2022-10-26T03:20:13.387Z,2.60
2022-10-26T03:22:16.348Z,2.40
2022-10-26T03:24:18.154Z,2.53
2022-10-26T03:26:19.882Z,3.00
2022-10-26T03:28:21.605Z,4.50
2022-10-26T03:30:23.319Z,3.27
2022-10-26T03:32:25.082Z,3.10
2022-10-26T03:34:26.761Z,2.17
2022-10-26T03:36:28.503Z,3.77
2022-10-26T03:38:30.355Z,2.07
2022-10-26T03:40:32.075Z,2.87
2022-10-26T03:42:36.278Z,2.33
2022-10-26T03:44:38.176Z,2.50
2022-10-26T03:46:41.389Z,2.63
2022-10-26T03:48:43.226Z,4.03
2022-10-26T03:50:45.243Z,2.77
2022-10-26T03:52:48.451Z,1.73
2022-10-26T03:54:51.573Z,3.33
2022-10-26T03:56:55.200Z,2.23
2022-10-26T03:58:57.144Z,1.93
2022-10-26T04:00:58.922Z,2.07
2022-10-26T04:03:03.503Z,2.47
2022-10-26T04:05:05.673Z,2.00
2022-10-26T04:07:07.602Z,2.53
2022-10-26T04:09:09.322Z,2.93
2022-10-26T04:11:11.078Z,3.83
2022-10-26T04:13:13.059Z,3.17
2022-10-26T04:15:15.244Z,2.03
2022-10-26T04:17:17.326Z,1.93
2022-10-26T04:19:19.213Z,3.80
2022-10-26T04:21:22.496Z,2.23
2022-10-26T04:25:30.094Z,3.17
2022-10-26T04:27:35.414Z,3.90
2022-10-26T04:29:37.052Z,2.80
2022-10-26T04:31:38.828Z,3.73
2022-10-26T04:33:40.549Z,5.10
2022-10-26T04:35:42.939Z,2.37
2022-10-26T04:37:44.886Z,3.40
2022-10-26T04:39:46.649Z,2.47
2022-10-26T04:41:48.460Z,2.50
2022-10-26T04:43:50.188Z,3.10
2022-10-26T04:45:58.419Z,2.53
2022-10-26T04:48:02.687Z,3.20
2022-10-26T04:50:05.392Z,3.47
2022-10-26T04:52:07.125Z,2.17
2022-10-26T04:54:08.872Z,4.57
2022-10-26T04:56:10.801Z,2.60
2022-10-26T04:58:12.681Z,2.87
2022-10-26T05:00:14.535Z,3.20
2022-10-26T05:02:16.505Z,2.43
2022-10-26T05:04:18.421Z,5.10
2022-10-26T05:06:21.487Z,2.47
2022-10-26T05:08:24.563Z,2.63
2022-10-26T05:10:26.971Z,2.97
2022-10-26T05:12:28.664Z,2.50
2022-10-26T05:14:30.370Z,2.83
2022-10-26T05:16:32.698Z,2.80
2022-10-26T05:18:37.239Z,3.13
2022-10-26T05:20:39.013Z,3.50
2022-10-26T05:22:41.501Z,2.90
2022-10-26T05:24:43.165Z,3.60
2022-10-26T05:26:45.045Z,2.60
2022-10-26T05:28:46.771Z,3.77
2022-10-26T05:30:48.511Z,4.83
2022-10-26T05:33:00.984Z,3.80
2022-10-26T05:35:02.834Z,3.57
2022-10-26T05:37:04.620Z,3.47
2022-10-26T05:39:06.976Z,3.53
2022-10-26T05:41:09.167Z,2.80
2022-10-26T05:43:11.302Z,3.87
2022-10-26T05:45:14.807Z,3.03
2022-10-26T05:47:16.791Z,3.53
2022-10-26T05:49:18.556Z,3.90
2022-10-26T05:51:20.543Z,2.97
2022-10-26T05:53:22.363Z,4.90
2022-10-26T05:55:26.455Z,4.27
2022-10-26T05:57:28.409Z,4.30
2022-10-26T05:59:30.751Z,2.90
2022-10-26T06:01:44.662Z,4.67
2022-10-26T06:04:03.502Z,4.77
2022-10-26T06:06:07.582Z,4.37
2022-10-26T06:08:11.559Z,4.13
2022-10-26T06:10:13.828Z,3.77
2022-10-26T06:12:19.277Z,4.20
2022-10-26T06:14:22.125Z,3.30
2022-10-26T06:16:52.391Z,6.07
2022-10-26T06:19:25.688Z,3.67
2022-10-26T06:21:56.786Z,4.57
2022-10-26T06:24:06.442Z,3.97
2022-10-26T06:26:50.848Z,3.53
2022-10-26T06:28:58.560Z,6.10
2022-10-26T06:31:00.205Z,4.80
2022-10-26T06:33:11.618Z,4.87
2022-10-26T06:35:43.126Z,3.80
2022-10-26T06:37:46.542Z,5.90
2022-10-26T06:39:54.055Z,4.60
2022-10-26T06:42:01.557Z,5.17
2022-10-26T06:44:06.458Z,6.33
2022-10-26T06:46:36.386Z,4.27
2022-10-26T06:48:48.312Z,3.43
2022-10-26T06:50:51.812Z,5.53
2022-10-26T06:53:02.316Z,3.60
2022-10-26T06:55:05.205Z,4.93
2022-10-26T06:57:11.375Z,4.43
2022-10-26T06:59:25.455Z,5.97
2022-10-26T07:01:27.203Z,4.27
2022-10-26T07:03:29.068Z,5.53
2022-10-26T07:05:31.322Z,5.03
2022-10-26T07:07:34.559Z,5.70
2022-10-26T07:09:36.331Z,4.20
2022-10-26T07:11:38.270Z,8.27
2022-10-26T07:13:40.050Z,5.20
2022-10-26T07:15:44.415Z,3.77
2022-10-26T07:17:48.765Z,5.17
2022-10-26T07:19:51.058Z,3.93
2022-10-26T07:21:57.125Z,4.03
2022-10-26T07:23:58.915Z,7.23
2022-10-26T07:26:01.348Z,3.63
2022-10-26T07:28:03.170Z,7.10
2022-10-26T07:30:05.635Z,5.90
2022-10-26T07:32:07.745Z,4.47
2022-10-26T07:34:09.900Z,5.47
2022-10-26T07:36:12.617Z,3.83
2022-10-26T07:38:14.527Z,4.47
2022-10-26T07:40:16.501Z,4.63
2022-10-26T07:42:18.313Z,4.60
2022-10-26T07:44:20.182Z,6.00
2022-10-26T07:46:22.274Z,4.83
2022-10-26T07:48:24.337Z,4.47
2022-10-26T07:50:26.528Z,6.17
2022-10-26T07:52:28.241Z,6.83
2022-10-26T07:54:30.101Z,4.70
2022-10-26T07:56:31.817Z,5.63
2022-10-26T07:58:33.652Z,4.03
2022-10-26T08:00:35.531Z,5.80
2022-10-26T08:02:38.926Z,6.27
2022-10-26T08:04:40.760Z,4.97
2022-10-26T08:06:42.886Z,4.43
2022-10-26T08:08:47.496Z,6.80
2022-10-26T08:10:49.819Z,4.73
2022-10-26T08:12:52.951Z,4.80
2022-10-26T08:14:54.976Z,3.97
2022-10-26T08:16:58.406Z,4.37
2022-10-26T08:19:00.238Z,5.50
2022-10-26T08:21:11.679Z,5.47
2022-10-26T08:23:15.123Z,5.47
2022-10-26T08:25:20.451Z,3.93
2022-10-26T08:27:23.564Z,4.80
2022-10-26T08:29:25.509Z,4.17
2022-10-26T08:31:27.491Z,5.73
2022-10-26T08:33:29.842Z,4.63
2022-10-26T08:35:32.271Z,5.30
2022-10-26T08:37:34.522Z,2.53
2022-10-26T08:39:36.338Z,5.03
2022-10-26T08:41:44.884Z,3.93
2022-10-26T08:43:53.978Z,5.03
2022-10-26T08:46:13.417Z,4.73
2022-10-26T08:48:24.470Z,3.77
2022-10-26T08:50:35.546Z,5.60
2022-10-26T08:52:49.366Z,5.00
2022-10-26T08:54:54.173Z,4.60
2022-10-26T08:56:59.375Z,4.90
2022-10-26T08:59:22.399Z,5.63
2022-10-26T09:01:24.561Z,6.43
2022-10-26T09:03:26.430Z,5.20
2022-10-26T09:05:49.530Z,6.27
2022-10-26T09:08:02.337Z,6.17
2022-10-26T09:10:40.921Z,7.47
2022-10-26T09:12:55.810Z,4.97
2022-10-26T09:15:31.363Z,5.10
2022-10-26T09:17:51.457Z,6.07
2022-10-26T09:19:53.142Z,4.90
2022-10-26T09:22:15.407Z,4.87
2022-10-26T09:24:32.370Z,6.37
2022-10-26T09:26:53.542Z,3.67
2022-10-26T09:28:57.926Z,4.20
2022-10-26T09:31:02.753Z,4.13
2022-10-26T09:33:16.242Z,4.47
2022-10-26T09:35:31.392Z,5.00
2022-10-26T09:37:37.863Z,6.17
2022-10-26T09:39:46.639Z,5.07
2022-10-26T09:41:57.564Z,6.90
2022-10-26T09:44:05.162Z,7.57
2022-10-26T09:46:16.557Z,6.43
2022-10-26T09:48:39.539Z,5.40
2022-10-26T09:50:46.464Z,6.23
2022-10-26T09:52:49.279Z,5.40
2022-10-26T09:54:51.485Z,6.33
2022-10-26T09:56:57.862Z,6.40
2022-10-26T09:59:05.912Z,4.03
2022-10-26T10:01:08.256Z,4.57
2022-10-26T10:03:39.230Z,4.20
2022-10-26T10:05:56.639Z,5.60
2022-10-26T10:08:11.130Z,5.37
2022-10-26T10:10:22.946Z,5.30
2022-10-26T10:12:41.306Z,6.60
2022-10-26T10:14:57.344Z,6.43
2022-10-26T10:17:02.090Z,5.63
2022-10-26T10:19:04.028Z,6.60
2022-10-26T10:21:06.499Z,5.43
2022-10-26T10:23:27.168Z,4.43
2022-10-26T10:25:40.051Z,6.80
2022-10-26T10:27:53.371Z,5.23
2022-10-26T10:30:03.109Z,5.70
2022-10-26T10:32:06.844Z,8.70
2022-10-26T10:34:17.685Z,4.80
2022-10-26T10:36:24.695Z,5.63
2022-10-26T10:38:26.939Z,4.77
2022-10-26T10:40:31.583Z,4.23
2022-10-26T10:42:38.822Z,4.83
2022-10-26T10:44:40.943Z,5.07
2022-10-26T10:46:43.023Z,4.97
2022-10-26T10:48:52.062Z,5.90
2022-10-26T10:51:01.005Z,8.17
2022-10-26T10:53:35.320Z,6.37
2022-10-26T10:55:38.963Z,3.53
2022-10-26T10:57:59.195Z,6.33
2022-10-26T11:00:09.771Z,4.27
2022-10-26T11:02:40.918Z,3.53
2022-10-26T11:04:45.382Z,6.10
2022-10-26T11:06:49.345Z,5.90
2022-10-26T11:09:02.976Z,7.60
2022-10-26T11:11:11.824Z,3.33
2022-10-26T11:13:22.231Z,3.90
2022-10-26T11:15:28.238Z,3.97
2022-10-26T11:17:34.367Z,5.13
2022-10-26T11:19:46.089Z,4.77
2022-10-26T11:21:54.404Z,5.53
2022-10-26T11:24:32.129Z,4.20
2022-10-26T11:26:42.406Z,4.40
2022-10-26T11:28:53.670Z,6.67
2022-10-26T11:31:01.126Z,7.80
2022-10-26T11:33:23.513Z,4.77
2022-10-26T11:35:33.030Z,3.83
2022-10-26T11:38:23.926Z,5.17
2022-10-26T11:41:01.917Z,3.10
2022-10-26T11:43:14.058Z,4.73
2022-10-26T11:45:25.223Z,5.13
2022-10-26T11:47:56.070Z,3.03
2022-10-26T11:50:27.057Z,5.23
2022-10-26T11:52:38.010Z,3.87
2022-10-26T11:54:44.934Z,3.67
2022-10-26T11:56:51.156Z,6.13
2022-10-26T11:58:53.550Z,6.27
2022-10-26T12:01:02.823Z,4.77
2022-10-26T12:03:11.997Z,3.50
2022-10-26T12:05:22.002Z,4.87
2022-10-26T12:07:29.128Z,5.07
2022-10-26T12:09:37.087Z,3.93
2022-10-26T12:11:58.777Z,2.73
2022-10-26T12:14:17.772Z,4.90
2022-10-26T12:16:33.138Z,3.60
2022-10-26T12:18:55.445Z,5.20
2022-10-26T12:21:04.146Z,4.37
2022-10-26T12:23:09.293Z,4.10
2022-10-26T12:25:20.933Z,3.53
2022-10-26T12:27:45.753Z,5.60
2022-10-26T12:29:50.970Z,4.80
2022-10-26T12:31:52.784Z,2.97
2022-10-26T12:33:54.542Z,2.83
2022-10-26T12:35:56.459Z,3.50
2022-10-26T12:37:59.932Z,5.33
2022-10-26T12:40:39.195Z,2.63
2022-10-26T12:42:41.950Z,5.93
2022-10-26T12:44:45.988Z,3.00
2022-10-26T12:46:47.926Z,3.57
2022-10-26T12:48:50.833Z,3.17
2022-10-26T12:50:53.296Z,4.27
2022-10-26T12:53:08.274Z,2.67
2022-10-26T12:55:12.970Z,3.40
2022-10-26T12:57:29.970Z,3.10
2022-10-26T12:59:42.560Z,3.70
2022-10-26T13:02:01.437Z,3.70
2022-10-26T13:04:20.942Z,2.77
2022-10-26T13:06:40.420Z,2.10
2022-10-26T13:08:45.943Z,3.20
2022-10-26T13:11:07.272Z,2.60
2022-10-26T13:13:26.136Z,3.83
2022-10-26T13:15:33.894Z,2.73
2022-10-26T13:17:37.604Z,2.97
2022-10-26T13:19:39.303Z,4.53
2022-10-26T13:21:49.187Z,3.13
2022-10-26T13:24:02.265Z,2.73
2022-10-26T13:26:16.464Z,2.73
2022-10-26T13:28:39.865Z,4.23
2022-10-26T13:30:47.689Z,2.63
2022-10-26T13:33:00.120Z,3.10
2022-10-26T13:35:05.031Z,2.53
2022-10-26T13:37:25.783Z,2.23
2022-10-26T13:39:33.599Z,3.67
2022-10-26T13:41:42.614Z,2.27
2022-10-26T13:43:46.067Z,3.50
2022-10-26T13:46:01.456Z,1.87
2022-10-26T13:48:14.958Z,4.33
2022-10-26T13:50:22.378Z,2.93
2022-10-26T13:52:36.149Z,4.40
2022-10-26T13:54:45.943Z,2.10
2022-10-26T13:57:13.469Z,2.27
2022-10-26T14:01:26.908Z,3.70
2022-10-26T14:03:29.321Z,2.90
2022-10-26T14:05:32.017Z,2.70
2022-10-26T14:07:43.758Z,5.10
2022-10-26T14:09:57.522Z,3.60
2022-10-26T14:12:01.825Z,3.67
2022-10-26T14:14:05.365Z,1.90
2022-10-26T14:16:11.768Z,2.53
2022-10-26T14:18:28.217Z,2.87
2022-10-26T14:20:32.229Z,3.77
2022-10-26T14:22:34.213Z,2.70
2022-10-26T14:24:47.196Z,2.93
2022-10-26T14:26:49.683Z,2.87
2022-10-26T14:28:58.669Z,2.47
2022-10-26T14:31:22.022Z,3.33
2022-10-26T14:33:30.628Z,2.67
2022-10-26T14:35:50.128Z,1.47
2022-10-26T14:38:02.343Z,2.13
2022-10-26T14:40:07.960Z,2.00
2022-10-26T14:42:33.477Z,2.33
2022-10-26T14:44:38.716Z,3.10
2022-10-26T14:46:44.026Z,2.17
2022-10-26T14:48:57.329Z,1.67
2022-10-26T14:51:07.333Z,1.87
2022-10-26T14:53:17.123Z,1.70
2022-10-26T14:55:19.666Z,1.80
2022-10-26T14:57:36.678Z,3.17
2022-10-26T14:59:39.842Z,1.50
2022-10-26T15:01:50.886Z,2.13
2022-10-26T15:04:01.450Z,1.63
2022-10-26T15:06:41.219Z,3.07
2022-10-26T15:08:56.429Z,1.80
2022-10-26T15:11:07.740Z,2.77
2022-10-26T15:13:27.959Z,1.90
2022-10-26T15:15:29.939Z,3.00
2022-10-26T15:17:38.159Z,1.80
2022-10-26T15:19:40.036Z,2.40
2022-10-26T15:21:50.199Z,4.20
2022-10-26T15:23:53.647Z,1.97
2022-10-26T15:25:58.312Z,2.50
2022-10-26T15:28:25.638Z,2.90
2022-10-26T15:30:28.219Z,3.53
2022-10-26T15:32:32.847Z,1.97
2022-10-26T15:34:34.896Z,2.87
2022-10-26T15:36:37.140Z,3.07
2022-10-26T15:38:39.038Z,3.57
2022-10-26T15:40:44.280Z,1.60
2022-10-26T15:42:52.414Z,2.63
2022-10-26T15:44:54.386Z,2.33
2022-10-26T15:47:05.067Z,2.53
2022-10-26T15:49:22.471Z,2.10
2022-10-26T15:51:24.581Z,1.47
2022-10-26T15:53:30.768Z,2.07
2022-10-26T15:55:32.677Z,2.03
2022-10-26T15:57:34.617Z,2.17
2022-10-26T15:59:37.758Z,1.50
2022-10-26T16:01:39.830Z,1.90
2022-10-26T16:03:41.833Z,1.67
2022-10-26T16:05:44.484Z,2.03
2022-10-26T16:07:48.509Z,2.20
2022-10-26T16:09:50.722Z,2.13
2022-10-26T16:11:52.582Z,2.03
2022-10-26T16:13:57.083Z,1.67
2022-10-26T16:16:02.110Z,3.30
2022-10-26T16:18:04.455Z,3.17
2022-10-26T16:20:08.869Z,2.63
2022-10-26T16:24:14.196Z,2.10
2022-10-26T16:26:16.709Z,3.07
2022-10-26T16:28:18.674Z,4.23
2022-10-26T16:30:21.316Z,2.23
2022-10-26T16:32:23.355Z,4.27
2022-10-26T16:34:25.160Z,2.07
2022-10-26T16:36:27.057Z,2.20
2022-10-26T16:38:31.676Z,2.23
2022-10-26T16:40:33.470Z,1.50
2022-10-26T16:42:35.745Z,3.27
2022-10-26T16:44:38.193Z,2.93
2022-10-26T16:46:41.366Z,2.03
2022-10-26T16:48:44.935Z,3.03
2022-10-26T16:50:47.246Z,2.33
2022-10-26T16:52:49.002Z,2.20
2022-10-26T16:54:50.900Z,3.77
2022-10-26T16:56:52.818Z,1.80
2022-10-26T16:58:56.594Z,2.03
2022-10-26T17:00:58.622Z,2.90
2022-10-26T17:03:02.378Z,3.03
2022-10-26T17:05:08.719Z,3.77
2022-10-26T17:07:14.113Z,2.03
2022-10-26T17:09:16.106Z,2.73
2022-10-26T17:11:19.851Z,3.10
2022-10-26T17:13:23.054Z,2.30
2022-10-26T17:15:28.968Z,2.10
2022-10-26T17:17:32.001Z,2.53
2022-10-26T17:19:33.881Z,2.00
2022-10-26T17:21:37.014Z,1.80
2022-10-26T17:23:39.059Z,1.63
2022-10-26T17:25:40.959Z,2.47
2022-10-26T17:27:46.379Z,2.37
2022-10-26T17:29:50.019Z,2.53
2022-10-26T17:31:52.703Z,2.10
2022-10-26T17:33:56.644Z,3.30
2022-10-26T17:35:58.714Z,2.97
2022-10-26T17:38:02.329Z,2.70
2022-10-26T17:40:05.182Z,2.23
2022-10-26T17:42:06.974Z,1.33
2022-10-26T17:44:09.315Z,2.37
2022-10-26T17:46:13.123Z,1.93
2022-10-26T17:48:15.653Z,1.80
2022-10-26T17:50:19.024Z,2.30
2022-10-26T17:52:24.500Z,3.43
2022-10-26T17:54:26.833Z,1.97
2022-10-26T17:56:31.474Z,2.13
2022-10-26T17:58:34.958Z,2.80
2022-10-26T18:00:37.182Z,2.67
2022-10-26T18:02:39.986Z,2.00
2022-10-26T18:04:41.826Z,1.47
2022-10-26T18:06:43.672Z,2.13
2022-10-26T18:08:45.833Z,1.63
2022-10-26T18:10:52.069Z,1.93
2022-10-26T18:12:55.120Z,1.97
2022-10-26T18:14:56.932Z,1.77
2022-10-26T18:16:58.915Z,2.20
2022-10-26T18:19:48.292Z,4.43
2022-10-26T18:21:54.336Z,1.60
2022-10-26T18:23:56.430Z,1.80
2022-10-26T18:26:11.351Z,4.47
2022-10-26T18:28:16.345Z,2.97
2022-10-26T18:30:18.119Z,2.73
2022-10-26T18:32:19.902Z,4.20
2022-10-26T18:34:22.055Z,2.60
2022-10-26T18:36:24.654Z,2.53
2022-10-26T18:38:26.391Z,1.53
2022-10-26T18:40:28.207Z,2.17
2022-10-26T18:42:30.085Z,1.60
2022-10-26T18:44:31.939Z,2.23
2022-10-26T18:46:40.109Z,3.13
2022-10-26T18:48:43.517Z,2.30
2022-10-26T18:50:46.373Z,3.57
2022-10-26T18:52:48.095Z,2.93
2022-10-26T18:54:53.493Z,3.60
2022-10-26T18:56:56.774Z,1.77
2022-10-26T18:58:59.918Z,1.67
2022-10-26T19:01:32.609Z,3.60
2022-10-26T19:03:34.927Z,2.47
2022-10-26T19:05:43.826Z,2.30
2022-10-26T19:07:45.567Z,3.70
2022-10-26T19:09:47.308Z,1.60
2022-10-26T19:11:49.123Z,2.83
2022-10-26T19:13:52.894Z,2.87
2022-10-26T19:16:16.911Z,2.33
2022-10-26T19:18:31.891Z,2.23
2022-10-26T19:20:33.589Z,3.13
2022-10-26T19:22:36.611Z,2.37
2022-10-26T19:24:39.845Z,2.90
2022-10-26T19:26:43.992Z,1.90
2022-10-26T19:28:49.193Z,3.30
2022-10-26T19:30:54.431Z,3.03
2022-10-26T19:32:57.744Z,2.57
2022-10-26T19:35:02.150Z,2.00
2022-10-26T19:37:05.223Z,2.03
2022-10-26T19:39:09.178Z,2.10
2022-10-26T19:41:14.171Z,2.87
2022-10-26T19:43:17.147Z,3.77
2022-10-26T19:45:18.932Z,2.70
2022-10-26T19:47:21.850Z,1.67
2022-10-26T19:49:29.608Z,1.63
2022-10-26T19:51:32.805Z,3.03
2022-10-26T19:53:36.442Z,1.97
2022-10-26T19:55:46.010Z,2.40
2022-10-26T19:57:47.851Z,3.77
2022-10-26T19:59:50.307Z,2.57
2022-10-26T20:01:52.239Z,1.77
2022-10-26T20:03:54.695Z,2.53
2022-10-26T20:06:03.658Z,3.00
2022-10-26T20:08:07.731Z,1.80
2022-10-26T20:10:11.036Z,2.70
2022-10-26T20:12:13.853Z,2.23
2022-10-26T20:14:16.039Z,3.07
2022-10-26T20:16:17.861Z,2.47
2022-10-26T20:18:20.116Z,3.23
2022-10-26T20:20:22.071Z,3.93
2022-10-26T20:22:24.158Z,3.90
2022-10-26T20:24:26.442Z,4.60
2022-10-26T20:26:28.729Z,4.93
2022-10-26T20:28:31.322Z,4.33
2022-10-26T20:30:35.517Z,4.37
2022-10-26T20:32:37.274Z,5.07
2022-10-26T20:34:41.365Z,2.80
2022-10-26T20:36:45.713Z,2.00
2022-10-26T20:38:48.189Z,1.93
2022-10-26T20:40:58.298Z,2.00
2022-10-26T20:43:00.845Z,3.00
2022-10-26T20:45:31.618Z,2.50
2022-10-26T20:47:35.262Z,1.97
2022-10-26T20:49:37.382Z,1.50
2022-10-26T20:52:19.258Z,2.17
2022-10-26T20:54:29.118Z,2.30
2022-10-26T20:56:33.301Z,1.60
2022-10-26T20:58:43.882Z,2.67
2022-10-26T21:00:58.410Z,2.80
2022-10-26T21:03:00.226Z,3.13
2022-10-26T21:05:02.479Z,2.10
2022-10-26T21:07:04.363Z,2.73
2022-10-26T21:09:06.890Z,4.67
2022-10-26T21:11:11.458Z,3.63
2022-10-26T21:13:13.315Z,2.13
2022-10-26T21:15:15.098Z,4.43
2022-10-26T21:17:20.558Z,2.40
2022-10-26T21:19:22.516Z,2.23
2022-10-26T21:21:24.339Z,1.80
2022-10-26T21:23:37.806Z,2.03
2022-10-26T21:25:39.729Z,1.87
2022-10-26T21:27:41.717Z,2.50
2022-10-26T21:29:43.500Z,1.67
2022-10-26T21:31:45.440Z,1.90
2022-10-26T21:33:47.795Z,3.27
2022-10-26T21:35:54.402Z,2.10
2022-10-26T21:37:56.643Z,3.37
2022-10-26T21:39:58.449Z,3.30
2022-10-26T21:42:00.242Z,2.43
2022-10-26T21:44:08.836Z,2.17
2022-10-26T21:46:12.796Z,2.13
2022-10-26T21:48:15.187Z,3.03
2022-10-26T21:50:17.430Z,2.63
2022-10-26T21:52:19.633Z,2.13
2022-10-26T21:54:21.382Z,3.27
2022-10-26T21:56:23.115Z,2.17
2022-10-26T21:58:25.012Z,2.23
2022-10-26T22:00:36.542Z,2.73
2022-10-26T22:02:39.209Z,3.50
2022-10-26T22:04:43.290Z,5.27
2022-10-26T22:06:45.057Z,3.67
2022-10-26T22:08:47.592Z,2.77
2022-10-26T22:10:49.599Z,3.90
2022-10-26T22:12:52.034Z,5.80
2022-10-26T22:14:54.104Z,5.13
2022-10-26T22:16:56.151Z,6.37
2022-10-26T22:19:03.274Z,5.27
2022-10-26T22:21:06.868Z,6.60
2022-10-26T22:23:10.485Z,4.10
2022-10-26T22:25:18.849Z,4.47
2022-10-26T22:27:20.890Z,2.30
2022-10-26T22:29:24.901Z,3.80
2022-10-26T22:31:42.373Z,2.87
2022-10-26T22:33:56.527Z,2.13
2022-10-26T22:36:05.147Z,3.53
2022-10-26T22:38:07.005Z,2.67
2022-10-26T22:40:09.346Z,1.80
2022-10-26T22:42:19.719Z,3.77
2022-10-26T22:44:21.775Z,2.20
2022-10-26T22:46:27.782Z,3.00
2022-10-26T22:48:30.172Z,4.70
2022-10-26T22:50:37.078Z,3.23
2022-10-26T22:52:46.121Z,4.17
2022-10-26T22:54:55.235Z,3.23
2022-10-26T22:57:00.553Z,3.37
2022-10-26T22:59:08.714Z,3.73
2022-10-26T23:01:13.717Z,3.60
2022-10-26T23:03:16.757Z,3.60
2022-10-26T23:05:19.665Z,4.13
2022-10-26T23:07:22.902Z,2.93
2022-10-26T23:09:30.819Z,2.43
2022-10-26T23:11:34.789Z,2.53
2022-10-26T23:13:39.417Z,2.37
2022-10-26T23:15:47.773Z,4.13
2022-10-26T23:17:52.173Z,2.40
2022-10-26T23:19:54.419Z,2.13
2022-10-26T23:22:03.156Z,2.73
2022-10-26T23:24:08.114Z,2.43
2022-10-26T23:26:13.123Z,1.77
2022-10-26T23:28:16.847Z,1.60
2022-10-26T23:30:18.915Z,2.70
2022-10-26T23:32:20.817Z,2.40
2022-10-26T23:34:24.420Z,2.93
2022-10-26T23:36:26.299Z,2.93
2022-10-26T23:38:28.320Z,2.30
2022-10-26T23:40:30.095Z,2.73
2022-10-26T23:42:31.929Z,3.10
2022-10-26T23:44:33.657Z,2.20
2022-10-26T23:46:35.455Z,3.03
2022-10-26T23:48:37.666Z,2.27
2022-10-26T23:50:41.610Z,2.53
2022-10-26T23:52:50.242Z,4.17
2022-10-26T23:54:52.065Z,2.93
2022-10-26T23:56:53.823Z,2.93
2022-10-26T23:58:55.815Z,2.47
